^^
Station Historical Data
Daily Summary for June 1, 2017 Units:  English    Metric   Both
« Previous Day
Next Day »
Daily Weekly Monthly Yearly Custom
  High: Low: Average:
Temperature: 77.2 °F 54.8 °F 66.5 °F
Dew Point: 61.3 °F 46.6 °F 54.8 °F
Humidity: 98% 36% 70%
Wind Speed: 6.0mph 0.0mph 1mph
Wind Gust: 14.0mph - -
Wind- - SW
Pressure: 29.97 in 29.88 in -
Precipitation: 0.02 in    
Historical Graphs
 
 
Tabular Data for June 1, 2017
Time Temperature Dew Point Pressure Wind Wind Speed Wind Gust Humidity Rainfall Rate (Hourly) Conditions
00:00 58.3 °F 56.3 °F 29.97 in NNW 2.0 mph 5.0 mph 93% 0.01 in RA
00:15 58.3 °F 56.6 °F 29.96 in Calm   4.0 mph 94% 0.02 in RA
00:30 58.3 °F 56.6 °F 29.95 in SSE 1.0 mph 3.0 mph 94% 0.00 in OVC
00:45 57.9 °F 56.2 °F 29.95 in Calm   2.0 mph 94% 0.00 in OVC
01:00 57.7 °F 56.3 °F 29.97 in Calm   1.0 mph 95% 0.00 in OVC
02:15 56.7 °F 55.6 °F 29.96 in Calm   1.0 mph 96% 0.00 in OVC
02:30 56.6 °F 55.5 °F 29.95 in Calm   1.0 mph 96% 0.00 in OVC
02:45 56.6 °F 55.5 °F 29.95 in Calm   1.0 mph 96% 0.00 in OVC
03:00 56.5 °F 55.4 °F 29.96 in Calm     96% 0.00 in OVC
03:15 56.7 °F 55.6 °F 29.96 in Calm   2.0 mph 96% 0.00 in SCT
03:30 56.7 °F 55.6 °F 29.96 in Calm   2.0 mph 96% 0.00 in SCT
03:45 56.7 °F 55.6 °F 29.96 in Calm     96% 0.00 in SCT
04:00 56.7 °F 55.9 °F 29.96 in Calm   1.0 mph 97% 0.00 in SCT
04:15 56.8 °F 56.0 °F 29.94 in Calm   2.0 mph 97% 0.00 in SCT
04:30 56.8 °F 56.0 °F 29.95 in Calm   2.0 mph 97% 0.00 in SCT
04:45 56.5 °F 55.7 °F 29.95 in Calm   1.0 mph 97% 0.00 in SCT
05:00 56.3 °F 55.1 °F 29.95 in Calm   1.0 mph 96% 0.00 in SCT
05:15 55.7 °F 54.6 °F 29.96 in Calm     96% 0.00 in SCT
05:30 55.2 °F 54.4 °F 29.96 in Calm     97% 0.00 in SCT
05:45 55.0 °F 54.2 °F 29.96 in Calm     97% 0.00 in SCT
06:00 55.0 °F 54.2 °F 29.96 in Calm     97% 0.00 in SCT
06:15 54.8 °F 54.0 °F 29.96 in Calm     97% 0.00 in FEW
06:30 55.1 °F 54.3 °F 29.96 in Calm   1.0 mph 97% 0.00 in FEW
06:45 55.8 °F 55.0 °F 29.96 in Calm   2.0 mph 97% 0.00 in FEW
07:00 56.3 °F 55.5 °F 29.96 in Calm     97% 0.00 in FEW
07:15 56.9 °F 56.3 °F 29.96 in Calm   1.0 mph 98% 0.00 in FEW
07:30 57.4 °F 56.8 °F 29.96 in Calm   2.0 mph 98% 0.00 in FEW
07:45 59.3 °F 58.7 °F 29.96 in Calm   1.0 mph 98% 0.00 in FEW
08:00 61.5 °F 60.7 °F 29.96 in Calm   2.0 mph 97% 0.00 in FEW
08:15 62.2 °F 60.5 °F 29.96 in SW 1.0 mph 3.0 mph 94% 0.00 in FEW
08:30 61.4 °F 59.1 °F 29.97 in SW 2.0 mph 4.0 mph 92% 0.00 in FEW
08:45 61.5 °F 59.5 °F 29.97 in Calm   4.0 mph 93% 0.00 in FEW
09:00 62.8 °F 60.1 °F 29.96 in SW 2.0 mph 5.0 mph 91% 0.00 in FEW
09:15 64.6 °F 61.0 °F 29.96 in SW 2.0 mph 6.0 mph 88% 0.00 in BKN
09:30 65.9 °F 61.3 °F 29.96 in SSW 1.0 mph 6.0 mph 85% 0.00 in BKN
09:45 66.6 °F 61.3 °F 29.96 in Calm   6.0 mph 83% 0.00 in BKN
10:00 67.3 °F 60.6 °F 29.95 in South 2.0 mph 6.0 mph 79% 0.00 in BKN
10:15 68.2 °F 60.7 °F 29.95 in Calm   5.0 mph 77% 0.00 in SCT
10:45 69.2 °F 60.2 °F 29.95 in SW 1.0 mph 5.0 mph 73% 0.00 in SCT
11:00 69.8 °F 60.7 °F 29.94 in WSW 2.0 mph 5.0 mph 73% 0.00 in SCT
11:15 71.1 °F 60.8 °F 29.94 in South 1.0 mph 6.0 mph 70% 0.00 in FEW
11:30 71.7 °F 60.2 °F 29.94 in South 1.0 mph 7.0 mph 67% 0.00 in FEW
11:45 72.5 °F 59.6 °F 29.94 in SSW 2.0 mph 6.0 mph 64% 0.00 in FEW
12:00 73.1 °F 57.9 °F 29.93 in SSW 5.0 mph 10.0 mph 59% 0.00 in FEW
12:15 73.5 °F 57.8 °F 29.92 in SSW 1.0 mph 8.0 mph 58% 0.00 in FEW
12:30 74.8 °F 58.1 °F 29.92 in SW 2.0 mph 7.0 mph 56% 0.00 in FEW
13:00 74.7 °F 57.5 °F 29.91 in SW 2.0 mph 7.0 mph 55% 0.00 in FEW
13:15 75.9 °F 55.9 °F 29.90 in WSW 1.0 mph 8.0 mph 50% 0.00 in BKN
13:30 75.6 °F 55.1 °F 29.90 in WNW 1.0 mph 5.0 mph 49% 0.00 in BKN
13:45 76.6 °F 53.7 °F 29.89 in West 3.0 mph 8.0 mph 45% 0.00 in BKN
14:00 76.7 °F 53.1 °F 29.89 in SW 3.0 mph 12.0 mph 44% 0.00 in BKN
14:15 73.3 °F 56.2 °F 29.90 in NW 1.0 mph 14.0 mph 55% 0.00 in BKN
14:30 72.7 °F 57.5 °F 29.89 in North 1.0 mph 7.0 mph 59% 0.00 in BKN
14:45 73.4 °F 57.2 °F 29.89 in NNE 1.0 mph 5.0 mph 57% 0.00 in BKN
15:00 75.5 °F 57.7 °F 29.89 in NW 1.0 mph 7.0 mph 54% 0.00 in BKN
15:15 74.2 °F 56.5 °F 29.89 in North 1.0 mph 6.0 mph 54% 0.00 in BKN
15:30 75.8 °F 55.3 °F 29.89 in NW 3.0 mph 8.0 mph 49% 0.00 in BKN
15:45 76.3 °F 56.3 °F 29.89 in NW 2.0 mph 8.0 mph 50% 0.00 in BKN
16:00 77.2 °F 55.4 °F 29.88 in WSW 3.0 mph 8.0 mph 47% 0.00 in BKN
16:15 76.9 °F 54.0 °F 29.88 in SW 2.0 mph 9.0 mph 45% 0.00 in BKN
16:30 76.0 °F 54.9 °F 29.89 in WNW 3.0 mph 6.0 mph 48% 0.00 in BKN
16:45 76.4 °F 54.7 °F 29.88 in NW 2.0 mph 9.0 mph 47% 0.00 in BKN
17:00 76.3 °F 54.0 °F 29.88 in NNW 3.0 mph 13.0 mph 46% 0.00 in BKN
17:15 76.1 °F 53.2 °F 29.89 in NW 3.0 mph 9.0 mph 45% 0.00 in SCT
17:30 76.6 °F 54.3 °F 29.89 in Calm   8.0 mph 46% 0.00 in SCT
17:45 76.8 °F 53.3 °F 29.89 in SE 2.0 mph 12.0 mph 44% 0.00 in SCT
18:00 76.5 °F 53.0 °F 29.89 in SW 2.0 mph 9.0 mph 44% 0.00 in SCT
18:15 76.0 °F 52.5 °F 29.89 in South 2.0 mph 9.0 mph 44% 0.00 in FEW
18:30 75.8 °F 50.4 °F 29.88 in South 3.0 mph 12.0 mph 41% 0.00 in FEW
18:45 75.6 °F 48.2 °F 29.89 in North 1.0 mph 8.0 mph 38% 0.00 in FEW
19:00 76.1 °F 47.2 °F 29.89 in SSW 2.0 mph 9.0 mph 36% 0.00 in FEW
19:15 75.3 °F 47.2 °F 29.89 in SW 1.0 mph 8.0 mph 37% 0.00 in FEW
19:30 75.1 °F 47.8 °F 29.89 in SSW 1.0 mph 5.0 mph 38% 0.00 in FEW
19:45 74.8 °F 47.5 °F 29.89 in Calm   2.0 mph 38% 0.00 in FEW
20:00 73.1 °F 46.6 °F 29.89 in Calm   4.0 mph 39% 0.00 in FEW
20:45 69.2 °F 47.5 °F 29.90 in Calm   1.0 mph 46% 0.00 in FEW
21:00 67.7 °F 47.8 °F 29.91 in Calm   1.0 mph 49% 0.00 in FEW
21:15 67.3 °F 47.5 °F 29.91 in Calm   1.0 mph 49% 0.00 in CLR
21:30 66.7 °F 48.5 °F 29.92 in Calm     52% 0.00 in CLR
21:45 65.6 °F 49.5 °F 29.92 in South 1.0 mph 3.0 mph 56% 0.00 in CLR
22:00 65.4 °F 49.8 °F 29.92 in Calm   2.0 mph 57% 0.00 in CLR
22:15 65.1 °F 50.0 °F 29.93 in South 1.0 mph 3.0 mph 58% 0.00 in CLR
22:30 65.0 °F 49.8 °F 29.93 in South 1.0 mph 4.0 mph 58% 0.00 in CLR
22:45 65.0 °F 49.9 °F 29.93 in Calm   4.0 mph 58% 0.00 in CLR
23:00 65.3 °F 49.7 °F 29.93 in SSW 1.0 mph 4.0 mph 57% 0.00 in CLR
23:15 65.2 °F 49.6 °F 29.93 in SW 1.0 mph 4.0 mph 57% 0.00 in CLR
23:30 65.5 °F 49.4 °F 29.93 in SSW 3.0 mph 6.0 mph 56% 0.00 in CLR
23:45 65.9 °F 48.7 °F 29.95 in SSW 6.0 mph 12.0 mph 54% 0.00 in CLR
TarryTown NY Weather
Compliments of Weather Underground - 1.5 mb